createdAt,value
2022-07-29T00:00:25.960Z,1.42
2022-07-29T00:02:54.162Z,1.50
2022-07-29T00:05:22.366Z,1.38
2022-07-29T00:07:50.530Z,1.27
2022-07-29T00:10:18.596Z,1.30
2022-07-29T00:12:46.751Z,1.40
2022-07-29T00:15:15.459Z,1.30
2022-07-29T00:17:44.901Z,1.30
2022-07-29T00:20:13.207Z,1.40
2022-07-29T00:22:41.492Z,1.30
2022-07-29T00:25:10.215Z,1.50
2022-07-29T00:27:38.717Z,1.30
2022-07-29T00:30:08.521Z,1.38
2022-07-29T00:32:36.700Z,2.05
2022-07-29T00:35:24.470Z,1.35
2022-07-29T00:37:52.696Z,1.70
2022-07-29T00:40:23.618Z,1.75
2022-07-29T00:42:53.859Z,1.33
2022-07-29T00:45:23.154Z,1.60
2022-07-29T00:47:51.580Z,1.55
2022-07-29T00:50:21.133Z,1.50
2022-07-29T00:52:49.620Z,1.45
2022-07-29T00:55:18.308Z,1.60
2022-07-29T00:57:47.180Z,1.80
2022-07-29T01:00:18.439Z,1.77
2022-07-29T01:02:49.186Z,1.75
2022-07-29T01:05:21.232Z,1.75
2022-07-29T01:07:53.449Z,1.67
2022-07-29T01:10:23.025Z,1.80
2022-07-29T01:12:53.600Z,1.83
2022-07-29T01:15:22.251Z,1.80
2022-07-29T01:17:59.383Z,1.65
2022-07-29T01:20:42.275Z,1.75
2022-07-29T01:23:45.017Z,1.77
2022-07-29T01:26:33.773Z,1.75
2022-07-29T01:29:11.293Z,2.05
2022-07-29T01:31:58.497Z,2.70
2022-07-29T01:34:36.833Z,2.30
2022-07-29T01:37:13.781Z,2.28
2022-07-29T01:39:43.594Z,3.13
2022-07-29T01:42:22.873Z,2.53
2022-07-29T01:44:57.986Z,2.70
2022-07-29T01:47:33.678Z,2.55
2022-07-29T01:50:09.500Z,2.78
2022-07-29T01:52:43.886Z,2.30
2022-07-29T01:55:16.089Z,2.25
2022-07-29T01:57:47.846Z,2.30
2022-07-29T02:00:18.780Z,2.55
2022-07-29T02:02:50.036Z,1.90
2022-07-29T02:05:21.206Z,2.13
2022-07-29T02:07:50.614Z,1.80
2022-07-29T02:10:25.845Z,2.60
2022-07-29T02:12:56.260Z,2.00
2022-07-29T02:15:27.435Z,1.80
2022-07-29T02:17:58.783Z,1.83
2022-07-29T02:20:28.469Z,1.88
2022-07-29T02:22:57.652Z,2.03
2022-07-29T02:25:36.910Z,1.80
2022-07-29T02:28:07.561Z,2.03
2022-07-29T02:30:39.229Z,2.13
2022-07-29T02:33:09.027Z,1.95
2022-07-29T02:35:37.500Z,2.30
2022-07-29T02:38:23.199Z,1.88
2022-07-29T02:40:54.634Z,1.58
2022-07-29T02:43:24.773Z,1.85
2022-07-29T02:45:57.242Z,1.90
2022-07-29T02:48:34.563Z,1.95
2022-07-29T02:51:08.548Z,2.45
2022-07-29T02:53:40.544Z,2.22
2022-07-29T02:56:12.822Z,2.08
2022-07-29T02:58:44.659Z,2.30
2022-07-29T03:01:21.754Z,2.30
2022-07-29T03:03:52.867Z,2.60
2022-07-29T03:06:28.218Z,2.50
2022-07-29T03:09:12.276Z,2.25
2022-07-29T03:11:50.230Z,2.25
2022-07-29T03:14:21.385Z,2.72
2022-07-29T03:16:52.353Z,2.70
2022-07-29T03:19:21.410Z,2.28
2022-07-29T03:21:49.998Z,2.60
2022-07-29T03:24:32.193Z,2.50
2022-07-29T03:27:00.625Z,2.50
2022-07-29T03:29:33.781Z,2.40
2022-07-29T03:32:07.969Z,2.88
2022-07-29T03:34:37.465Z,2.90
2022-07-29T03:37:06.851Z,2.55
2022-07-29T03:39:39.022Z,2.85
2022-07-29T03:42:10.818Z,3.10
2022-07-29T03:44:40.974Z,2.70
2022-07-29T03:47:13.051Z,3.20
2022-07-29T03:49:42.531Z,3.10
2022-07-29T03:52:11.060Z,3.50
2022-07-29T03:54:39.270Z,3.08
2022-07-29T03:57:09.302Z,3.00
2022-07-29T03:59:38.876Z,3.08
2022-07-29T04:02:10.676Z,2.58
2022-07-29T04:04:40.492Z,3.00
2022-07-29T04:07:08.599Z,3.00
2022-07-29T04:09:36.610Z,2.92
2022-07-29T04:12:05.206Z,3.47
2022-07-29T04:14:34.423Z,3.00
2022-07-29T04:17:02.874Z,3.30
2022-07-29T04:19:31.105Z,3.00
2022-07-29T04:22:01.637Z,3.70
2022-07-29T04:24:30.262Z,3.67
2022-07-29T04:26:58.329Z,2.70
2022-07-29T04:29:26.740Z,3.58
2022-07-29T04:31:54.855Z,3.08
2022-07-29T04:34:22.984Z,3.08
2022-07-29T04:36:56.266Z,3.28
2022-07-29T04:39:25.921Z,2.92
2022-07-29T04:41:57.663Z,3.42
2022-07-29T04:44:28.578Z,3.25
2022-07-29T04:46:58.629Z,3.22
2022-07-29T04:49:27.233Z,3.30
2022-07-29T04:51:55.519Z,3.28
2022-07-29T04:54:25.520Z,3.40
2022-07-29T04:56:53.803Z,3.63
2022-07-29T04:59:21.787Z,3.40
2022-07-29T05:01:49.905Z,3.38
2022-07-29T05:04:18.228Z,2.80
2022-07-29T05:06:46.712Z,3.05
2022-07-29T05:09:14.768Z,3.45
2022-07-29T05:11:44.178Z,3.38
2022-07-29T05:14:12.363Z,3.20
2022-07-29T05:16:41.281Z,3.20
2022-07-29T05:19:14.012Z,3.03
2022-07-29T05:21:42.905Z,3.53
2022-07-29T05:24:10.875Z,2.92
2022-07-29T05:26:38.954Z,3.28
2022-07-29T05:29:08.321Z,3.13
2022-07-29T05:31:56.357Z,3.20
2022-07-29T05:34:24.789Z,3.38
2022-07-29T05:36:52.839Z,3.65
2022-07-29T05:39:21.132Z,3.78
2022-07-29T05:41:52.031Z,3.20
2022-07-29T05:44:21.660Z,4.35
2022-07-29T05:46:53.535Z,4.22
2022-07-29T05:49:26.986Z,4.70
2022-07-29T05:51:55.413Z,3.78
2022-07-29T05:54:23.486Z,3.20
2022-07-29T05:56:51.470Z,3.35
2022-07-29T05:59:21.001Z,3.08
2022-07-29T06:01:49.219Z,3.20
2022-07-29T06:04:17.685Z,3.45
2022-07-29T06:06:46.500Z,3.38
2022-07-29T06:09:14.923Z,3.13
2022-07-29T06:11:43.678Z,3.15
2022-07-29T06:14:12.211Z,3.38
2022-07-29T06:16:41.953Z,3.25
2022-07-29T06:19:10.165Z,3.40
2022-07-29T06:21:38.707Z,3.00
2022-07-29T06:24:10.465Z,4.00
2022-07-29T06:26:40.045Z,2.97
2022-07-29T06:29:08.644Z,3.67
2022-07-29T06:31:36.707Z,3.25
2022-07-29T06:34:06.535Z,3.03
2022-07-29T06:36:37.744Z,2.90
2022-07-29T06:39:07.644Z,3.03
2022-07-29T06:41:36.542Z,2.92
2022-07-29T06:44:05.643Z,3.22
2022-07-29T06:46:33.906Z,3.03
2022-07-29T06:49:03.457Z,3.10
2022-07-29T06:51:32.871Z,2.70
2022-07-29T06:54:02.903Z,2.72
2022-07-29T06:56:39.003Z,3.03
2022-07-29T06:59:09.081Z,3.72
2022-07-29T07:01:38.512Z,2.67
2022-07-29T07:04:06.740Z,2.88
2022-07-29T07:06:36.534Z,2.95
2022-07-29T07:09:04.860Z,2.80
2022-07-29T07:11:33.042Z,3.25
2022-07-29T07:14:03.749Z,3.17
2022-07-29T07:16:33.209Z,3.20
2022-07-29T07:19:01.707Z,2.90
2022-07-29T07:21:30.973Z,2.60
2022-07-29T07:24:00.866Z,2.70
2022-07-29T07:26:29.371Z,3.42
2022-07-29T07:28:57.608Z,2.83
2022-07-29T07:31:25.803Z,2.55
2022-07-29T07:33:54.518Z,2.45
2022-07-29T07:36:22.875Z,2.85
2022-07-29T07:38:51.445Z,2.50
2022-07-29T07:41:20.975Z,2.65
2022-07-29T07:43:49.101Z,2.75
2022-07-29T07:46:17.390Z,2.72
2022-07-29T07:48:45.895Z,2.72
2022-07-29T07:51:14.203Z,2.40
2022-07-29T07:53:42.411Z,2.80
2022-07-29T07:56:12.065Z,2.63
2022-07-29T07:58:42.101Z,2.75
2022-07-29T08:01:10.390Z,2.83
2022-07-29T08:03:38.778Z,3.08
2022-07-29T08:06:07.437Z,2.60
2022-07-29T08:08:35.873Z,2.75
2022-07-29T08:11:09.132Z,2.95
2022-07-29T08:13:38.793Z,2.90
2022-07-29T08:16:16.496Z,3.20
2022-07-29T08:18:46.649Z,3.22
2022-07-29T08:21:15.566Z,3.03
2022-07-29T08:23:59.682Z,2.67
2022-07-29T08:26:28.980Z,2.80
2022-07-29T08:28:57.122Z,3.20
2022-07-29T08:31:26.650Z,3.00
2022-07-29T08:33:54.800Z,3.10
2022-07-29T08:36:23.080Z,2.65
2022-07-29T08:38:51.993Z,3.10
2022-07-29T08:41:20.856Z,3.20
2022-07-29T08:43:49.335Z,3.30
2022-07-29T08:46:18.721Z,2.92
2022-07-29T08:48:49.975Z,2.88
2022-07-29T08:51:20.533Z,2.88
2022-07-29T08:53:50.896Z,3.00
2022-07-29T08:56:20.177Z,3.17
2022-07-29T08:58:52.264Z,3.10
2022-07-29T09:01:35.124Z,3.33
2022-07-29T09:04:11.357Z,3.10
2022-07-29T09:06:45.439Z,3.17
2022-07-29T09:09:14.739Z,2.85
2022-07-29T09:11:43.708Z,3.42
2022-07-29T09:14:14.308Z,3.00
2022-07-29T09:16:54.242Z,3.30
2022-07-29T09:19:26.018Z,3.05
2022-07-29T09:22:03.130Z,3.63
2022-07-29T09:24:46.097Z,2.95
2022-07-29T09:27:27.404Z,2.87
2022-07-29T09:30:00.189Z,3.05
2022-07-29T09:35:17.362Z,2.92
2022-07-29T09:37:45.845Z,3.17
2022-07-29T09:40:16.904Z,3.47
2022-07-29T09:42:45.985Z,2.75
2022-07-29T09:45:14.174Z,3.08
2022-07-29T09:47:50.274Z,3.70
2022-07-29T09:50:24.825Z,3.08
2022-07-29T09:52:54.374Z,3.53
2022-07-29T09:55:22.500Z,3.47
2022-07-29T09:57:50.487Z,3.60
2022-07-29T10:00:20.880Z,3.50
2022-07-29T10:02:49.863Z,3.42
2022-07-29T10:05:23.816Z,3.75
2022-07-29T10:07:55.260Z,3.92
2022-07-29T10:10:27.190Z,3.90
2022-07-29T10:12:57.117Z,3.90
2022-07-29T10:15:27.375Z,4.20
2022-07-29T10:17:58.139Z,3.95
2022-07-29T10:20:28.776Z,3.45
2022-07-29T10:22:57.345Z,3.80
2022-07-29T10:25:26.656Z,3.53
2022-07-29T10:27:55.897Z,3.35
2022-07-29T10:30:25.916Z,3.33
2022-07-29T10:33:08.566Z,3.20
2022-07-29T10:35:50.518Z,3.33
2022-07-29T10:38:45.711Z,3.20
2022-07-29T10:41:43.861Z,3.60
2022-07-29T10:44:19.207Z,3.45
2022-07-29T10:46:48.775Z,3.00
2022-07-29T10:49:18.872Z,3.47
2022-07-29T10:52:08.257Z,3.95
2022-07-29T10:54:54.621Z,3.20
2022-07-29T10:57:53.611Z,3.03
2022-07-29T11:00:34.880Z,3.50
2022-07-29T11:03:04.644Z,3.45
2022-07-29T11:05:55.225Z,3.97
2022-07-29T11:08:27.627Z,3.90
2022-07-29T11:11:43.913Z,3.30
2022-07-29T11:15:00.249Z,3.10
2022-07-29T11:17:47.231Z,3.25
2022-07-29T11:20:37.794Z,3.47
2022-07-29T11:23:40.349Z,3.42
2022-07-29T11:26:22.900Z,3.80
2022-07-29T11:28:55.950Z,3.92
2022-07-29T11:34:22.594Z,3.90
2022-07-29T11:37:28.371Z,3.55
2022-07-29T11:40:21.472Z,3.72
2022-07-29T11:42:51.880Z,3.33
2022-07-29T11:45:44.998Z,3.38
2022-07-29T11:50:59.290Z,2.80
2022-07-29T11:53:29.002Z,3.10
2022-07-29T11:56:06.167Z,3.13
2022-07-29T11:58:34.829Z,2.97
2022-07-29T12:01:06.247Z,2.35
2022-07-29T12:03:36.894Z,3.08
2022-07-29T12:06:14.891Z,2.72
2022-07-29T12:08:45.263Z,2.50
2022-07-29T12:11:23.002Z,2.50
2022-07-29T12:13:52.657Z,2.35
2022-07-29T12:16:26.150Z,2.55
2022-07-29T12:18:58.764Z,2.25
2022-07-29T12:21:28.785Z,2.60
2022-07-29T12:24:05.437Z,2.00
2022-07-29T12:26:40.372Z,2.22
2022-07-29T12:29:11.322Z,2.17
2022-07-29T12:31:45.308Z,2.10
2022-07-29T12:34:15.061Z,2.00
2022-07-29T12:36:44.648Z,1.88
2022-07-29T12:39:13.507Z,1.90
2022-07-29T12:41:42.971Z,1.75
2022-07-29T12:44:11.672Z,1.85
2022-07-29T12:46:39.873Z,1.48
2022-07-29T12:49:08.045Z,1.80
2022-07-29T12:51:38.174Z,1.77
2022-07-29T12:54:09.387Z,1.70
2022-07-29T12:56:45.119Z,1.40
2022-07-29T12:59:17.069Z,1.65
2022-07-29T13:01:45.638Z,1.80
2022-07-29T13:04:25.799Z,1.73
2022-07-29T13:07:01.815Z,1.60
2022-07-29T13:09:39.999Z,1.63
2022-07-29T13:12:11.101Z,1.48
2022-07-29T13:14:42.468Z,1.60
2022-07-29T13:17:12.701Z,1.60
2022-07-29T13:19:42.393Z,1.35
2022-07-29T13:22:11.406Z,1.35
2022-07-29T13:24:50.382Z,1.60
2022-07-29T13:27:19.052Z,1.50
2022-07-29T13:29:49.762Z,1.73
2022-07-29T13:32:17.817Z,1.20
2022-07-29T13:34:45.837Z,1.17
2022-07-29T13:37:13.967Z,1.40
2022-07-29T13:39:42.007Z,1.40
2022-07-29T13:42:21.252Z,1.35
2022-07-29T13:44:52.576Z,1.65
2022-07-29T13:47:20.935Z,1.33
2022-07-29T13:49:49.101Z,1.40
2022-07-29T13:52:17.545Z,1.50
2022-07-29T13:54:45.612Z,1.65
2022-07-29T13:57:14.326Z,1.52
2022-07-29T13:59:42.917Z,1.52
2022-07-29T14:02:15.507Z,1.30
2022-07-29T14:04:43.797Z,1.80
2022-07-29T14:07:11.882Z,1.70
2022-07-29T14:09:44.826Z,1.40
2022-07-29T14:12:13.248Z,1.60
2022-07-29T14:14:42.536Z,1.60
2022-07-29T14:17:12.589Z,1.50
2022-07-29T14:19:40.680Z,1.58
2022-07-29T14:22:10.689Z,1.58
2022-07-29T14:24:40.358Z,1.55
2022-07-29T14:27:09.529Z,1.45
2022-07-29T14:29:38.808Z,1.70
2022-07-29T14:32:08.712Z,1.73
2022-07-29T14:34:38.756Z,1.70
2022-07-29T14:37:07.621Z,1.80
2022-07-29T14:39:42.497Z,1.52
2022-07-29T14:42:12.488Z,1.52
2022-07-29T14:44:42.513Z,1.60
2022-07-29T14:47:11.224Z,1.77
2022-07-29T14:49:40.695Z,1.48
2022-07-29T14:52:08.690Z,1.80
2022-07-29T14:54:37.037Z,1.40
2022-07-29T14:57:05.166Z,1.63
2022-07-29T14:59:33.218Z,1.52
2022-07-29T15:02:01.685Z,1.70
2022-07-29T15:04:30.149Z,1.58
2022-07-29T15:06:59.552Z,1.70
2022-07-29T15:09:27.736Z,1.40
2022-07-29T15:11:56.182Z,1.75
2022-07-29T15:14:24.629Z,1.60
2022-07-29T15:16:52.963Z,1.50
2022-07-29T15:19:21.241Z,1.42
2022-07-29T15:21:49.372Z,1.40
2022-07-29T15:24:19.065Z,1.40
2022-07-29T15:26:47.532Z,1.55
2022-07-29T15:29:16.393Z,1.50
2022-07-29T15:31:44.520Z,1.65
2022-07-29T15:34:12.791Z,1.45
2022-07-29T15:36:51.974Z,1.67
2022-07-29T15:39:23.166Z,1.60
2022-07-29T15:41:51.929Z,1.80
2022-07-29T15:44:20.900Z,1.80
2022-07-29T15:47:04.584Z,1.85
2022-07-29T15:49:47.526Z,1.80
2022-07-29T15:52:25.007Z,1.70
2022-07-29T15:54:56.946Z,1.73
2022-07-29T15:57:25.971Z,1.90
2022-07-29T15:59:54.274Z,1.65
2022-07-29T16:02:22.405Z,1.65
2022-07-29T16:04:50.479Z,1.60
2022-07-29T16:07:18.612Z,1.60
2022-07-29T16:09:52.420Z,1.75
2022-07-29T16:12:22.511Z,1.70
2022-07-29T16:14:51.368Z,2.10
2022-07-29T16:17:19.691Z,1.95
2022-07-29T16:19:48.023Z,1.70
2022-07-29T16:22:16.043Z,2.10
2022-07-29T16:24:44.089Z,1.77
2022-07-29T16:27:12.077Z,1.80
2022-07-29T16:29:41.513Z,1.90
2022-07-29T16:32:09.562Z,2.00
2022-07-29T16:34:37.623Z,1.80
2022-07-29T16:37:05.901Z,1.88
2022-07-29T16:39:34.128Z,2.13
2022-07-29T16:42:05.603Z,1.63
2022-07-29T16:44:34.835Z,1.70
2022-07-29T16:47:05.074Z,1.92
2022-07-29T16:49:33.101Z,2.10
2022-07-29T16:52:01.199Z,1.85
2022-07-29T16:54:29.256Z,1.77
2022-07-29T16:56:57.673Z,2.25
2022-07-29T16:59:25.836Z,2.08
2022-07-29T17:01:53.918Z,2.25
2022-07-29T17:04:24.364Z,2.25
2022-07-29T17:06:52.542Z,2.38
2022-07-29T17:09:21.106Z,2.00
2022-07-29T17:11:54.917Z,2.08
2022-07-29T17:14:25.599Z,2.15
2022-07-29T17:17:01.195Z,2.20
2022-07-29T17:19:32.425Z,2.05
2022-07-29T17:22:11.292Z,2.45
2022-07-29T17:24:41.334Z,1.98
2022-07-29T17:27:10.110Z,2.75
2022-07-29T17:29:38.958Z,2.58
2022-07-29T17:32:08.158Z,4.63
2022-07-29T17:34:37.955Z,2.90
2022-07-29T17:37:06.363Z,2.63
2022-07-29T17:39:35.551Z,2.45
2022-07-29T17:42:04.186Z,2.58
2022-07-29T17:44:32.400Z,2.50
2022-07-29T17:47:05.286Z,2.45
2022-07-29T17:49:36.722Z,2.42
2022-07-29T17:52:07.639Z,3.05
2022-07-29T17:54:35.687Z,3.70
2022-07-29T17:57:03.973Z,4.10
2022-07-29T17:59:32.051Z,2.88
2022-07-29T18:02:00.237Z,3.08
2022-07-29T18:04:29.216Z,2.90
2022-07-29T18:06:57.663Z,3.08
2022-07-29T18:09:27.310Z,3.03
2022-07-29T18:11:55.387Z,2.92
2022-07-29T18:14:23.445Z,3.58
2022-07-29T18:16:51.587Z,3.60
2022-07-29T18:19:19.653Z,3.90
2022-07-29T18:21:54.533Z,2.80
2022-07-29T18:24:25.662Z,3.30
2022-07-29T18:26:55.540Z,2.92
2022-07-29T18:29:23.799Z,2.78
2022-07-29T18:31:51.909Z,2.53
2022-07-29T18:34:19.993Z,2.42
2022-07-29T18:36:48.081Z,2.70
2022-07-29T18:39:20.013Z,2.22
2022-07-29T18:41:51.354Z,3.20
2022-07-29T18:44:22.641Z,3.40
2022-07-29T18:46:52.214Z,3.00
2022-07-29T18:49:20.946Z,2.95
2022-07-29T18:51:49.492Z,3.65
2022-07-29T18:54:18.455Z,2.75
2022-07-29T18:56:47.416Z,2.50
2022-07-29T18:59:19.711Z,2.70
2022-07-29T19:01:49.657Z,2.05
2022-07-29T19:04:18.258Z,2.35
2022-07-29T19:06:46.387Z,2.30
2022-07-29T19:09:14.522Z,2.30
2022-07-29T19:11:42.616Z,2.33
2022-07-29T19:14:11.070Z,2.28
2022-07-29T19:16:39.203Z,2.08
2022-07-29T19:19:10.607Z,2.00
2022-07-29T19:21:38.719Z,2.03
2022-07-29T19:24:12.365Z,2.30
2022-07-29T19:26:47.039Z,2.38
2022-07-29T19:29:15.414Z,2.13
2022-07-29T19:31:43.929Z,2.10
2022-07-29T19:34:13.731Z,2.65
2022-07-29T19:36:41.923Z,13.13
2022-07-29T19:39:10.428Z,3.30
2022-07-29T19:41:38.994Z,29.98
2022-07-29T19:44:07.091Z,17.20
2022-07-29T19:46:35.534Z,4.53
2022-07-29T19:49:06.106Z,2.80
2022-07-29T19:51:35.695Z,2.30
2022-07-29T19:54:03.959Z,2.08
2022-07-29T19:56:32.031Z,1.95
2022-07-29T19:59:00.752Z,2.00
2022-07-29T20:01:30.590Z,2.17
2022-07-29T20:03:58.746Z,1.90
2022-07-29T20:06:27.229Z,2.22
2022-07-29T20:08:58.763Z,2.00
2022-07-29T20:11:29.766Z,2.30
2022-07-29T20:13:57.914Z,2.15
2022-07-29T20:16:26.133Z,2.20
2022-07-29T20:18:54.216Z,2.20
2022-07-29T20:21:22.331Z,2.70
2022-07-29T20:23:50.458Z,2.30
2022-07-29T20:26:20.143Z,2.28
2022-07-29T20:28:49.630Z,2.40
2022-07-29T20:31:18.909Z,2.10
2022-07-29T20:33:47.073Z,2.83
2022-07-29T20:36:15.626Z,3.47
2022-07-29T20:38:43.683Z,2.63
2022-07-29T20:41:11.748Z,2.70
2022-07-29T20:43:41.409Z,2.13
2022-07-29T20:46:10.226Z,2.00
2022-07-29T20:48:39.951Z,2.28
2022-07-29T20:51:08.627Z,3.25
2022-07-29T20:53:38.780Z,2.60
2022-07-29T20:56:07.565Z,3.08
2022-07-29T20:58:36.566Z,2.50
2022-07-29T21:01:07.252Z,2.92
2022-07-29T21:03:35.421Z,2.40
2022-07-29T21:06:03.511Z,2.80
2022-07-29T21:08:32.138Z,2.25
2022-07-29T21:11:00.205Z,2.60
2022-07-29T21:13:28.394Z,3.28
2022-07-29T21:16:01.959Z,2.67
2022-07-29T21:18:37.067Z,2.53
2022-07-29T21:21:06.626Z,2.90
2022-07-29T21:23:35.075Z,2.83
2022-07-29T21:26:03.726Z,2.70
2022-07-29T21:28:36.639Z,2.65
2022-07-29T21:33:36.148Z,3.05
2022-07-29T21:38:53.787Z,3.45
2022-07-29T21:41:22.432Z,3.47
2022-07-29T21:43:50.570Z,3.17
2022-07-29T21:46:18.599Z,3.28
2022-07-29T21:48:49.396Z,3.70
2022-07-29T21:51:17.622Z,3.72
2022-07-29T21:53:45.855Z,4.20
2022-07-29T21:56:14.616Z,3.70
2022-07-29T21:58:43.608Z,3.47
2022-07-29T22:01:11.817Z,4.30
2022-07-29T22:03:39.946Z,3.85
2022-07-29T22:06:11.243Z,4.15
2022-07-29T22:08:47.925Z,4.15
2022-07-29T22:11:16.236Z,4.90
2022-07-29T22:13:44.233Z,5.10
2022-07-29T22:16:15.035Z,4.50
2022-07-29T22:18:45.103Z,4.30
2022-07-29T22:21:15.199Z,4.63
2022-07-29T22:23:43.531Z,4.90
2022-07-29T22:26:11.636Z,4.88
2022-07-29T22:28:39.685Z,4.60
2022-07-29T22:31:08.817Z,4.85
2022-07-29T22:33:37.211Z,4.72
2022-07-29T22:36:05.543Z,4.28
2022-07-29T22:38:35.014Z,4.63
2022-07-29T22:41:03.439Z,5.05
2022-07-29T22:43:31.648Z,4.70
2022-07-29T22:45:59.693Z,5.15
2022-07-29T22:48:28.113Z,5.57
2022-07-29T22:50:56.115Z,4.78
2022-07-29T22:53:24.168Z,4.93
2022-07-29T22:55:53.618Z,4.55
2022-07-29T22:58:21.751Z,4.45
2022-07-29T23:00:50.017Z,5.10
2022-07-29T23:03:18.150Z,5.10
2022-07-29T23:05:46.174Z,5.22
2022-07-29T23:08:14.540Z,5.57
2022-07-29T23:10:42.547Z,5.18
2022-07-29T23:13:12.055Z,5.05
2022-07-29T23:15:40.082Z,5.35
2022-07-29T23:18:08.577Z,5.45
2022-07-29T23:20:36.757Z,5.35
2022-07-29T23:23:05.050Z,5.97
2022-07-29T23:25:33.239Z,5.30
2022-07-29T23:28:02.069Z,5.38
2022-07-29T23:30:31.604Z,5.43
2022-07-29T23:32:59.592Z,6.03
2022-07-29T23:35:27.789Z,6.13
2022-07-29T23:37:55.834Z,5.75
2022-07-29T23:40:24.075Z,5.90
2022-07-29T23:42:52.081Z,6.35
2022-07-29T23:45:20.126Z,5.80
2022-07-29T23:47:49.549Z,5.88
2022-07-29T23:50:17.552Z,6.35
2022-07-29T23:52:45.757Z,6.45
2022-07-29T23:55:36.711Z,7.10
2022-07-29T23:58:03.043Z,7.15
